Time;durP1;ratioP1;P1;durP2;ratioP2;P2;SDS_P1;SDS_P2;PMS_P1;PMS_P2;Temp;Humidity;BMP_temperature;BMP_pressure;BME280_temperature;BME280_humidity;BME280_pressure;Samples;Min_cycle;Max_cycle;Signal;HPM_P1;HPM_P2
2023/09/13 00:01:02;;;;;;;11.40;10.30;;;20.50;87.30;;;19.96;77.76;97540.84;5042592;28;20489;-77
2023/09/13 00:03:33;;;;;;;12.50;10.73;;;20.40;87.20;;;19.94;77.24;97550.44;5050993;28;20463;-78
2023/09/13 00:06:00;;;;;;;11.97;10.13;;;20.30;87.10;;;20.00;77.03;97554.78;5050015;28;20928;-81
2023/09/13 00:08:27;;;;;;;11.43;10.30;;;20.40;86.80;;;19.92;76.39;97548.00;5051310;28;20532;-82
2023/09/13 00:11:03;;;;;;;11.13;10.10;;;20.30;86.60;;;20.13;75.39;97566.19;5049964;28;20457;-83
2023/09/13 00:13:30;;;;;;;11.33;9.90;;;20.50;86.40;;;20.25;75.07;97563.88;5048685;28;20503;-77
2023/09/13 00:15:57;;;;;;;10.57;9.60;;;20.50;86.40;;;20.41;73.93;97555.50;5047094;28;20530;-82
2023/09/13 00:18:25;;;;;;;12.53;10.23;;;20.60;86.10;;;20.33;74.08;97549.50;5038750;28;20488;-83
2023/09/13 00:20:54;;;;;;;12.80;10.53;;;20.50;86.00;;;20.24;74.42;97562.22;5050712;28;20489;-81
2023/09/13 00:23:21;;;;;;;10.73;9.43;;;20.50;86.00;;;20.20;74.56;97555.69;5044232;28;21084;-81
2023/09/13 00:25:49;;;;;;;11.37;10.27;;;20.40;86.10;;;20.22;74.54;97558.97;5045992;28;20539;-81
2023/09/13 00:28:17;;;;;;;11.17;10.03;;;20.40;86.10;;;20.15;74.63;97563.97;5047305;28;20940;-79
2023/09/13 00:30:45;;;;;;;11.03;9.93;;;20.30;86.10;;;20.17;74.81;97561.75;5048071;28;20477;-83
2023/09/13 00:33:12;;;;;;;10.83;9.73;;;20.20;86.30;;;20.19;74.21;97568.59;5046886;28;20593;-80
2023/09/13 00:35:39;;;;;;;11.17;10.17;;;20.20;86.20;;;20.02;74.93;97571.75;5050286;28;20460;-81
2023/09/13 00:38:09;;;;;;;12.03;10.10;;;20.10;86.20;;;19.91;75.43;97570.19;5048695;28;20462;-83
2023/09/13 00:40:36;;;;;;;11.43;10.03;;;20.00;86.50;;;19.83;76.27;97588.06;5048810;28;20513;-80
2023/09/13 00:43:04;;;;;;;11.20;10.17;;;19.90;86.90;;;19.88;76.23;97584.47;5048521;28;20458;-83
2023/09/13 00:45:35;;;;;;;12.27;10.90;;;19.90;87.20;;;19.89;75.91;97594.31;5046794;28;20507;-80
2023/09/13 00:48:03;;;;;;;10.90;9.90;;;19.90;87.00;;;19.85;75.78;97598.75;5049859;28;20769;-80
2023/09/13 00:50:30;;;;;;;10.43;9.43;;;19.90;87.00;;;19.92;75.24;97599.25;5049873;28;20884;-80
2023/09/13 00:52:59;;;;;;;12.60;10.83;;;20.00;86.80;;;19.93;74.97;97600.91;5046871;28;20452;-81
2023/09/13 00:55:28;;;;;;;11.47;10.40;;;20.00;86.60;;;19.96;74.80;97611.31;5051060;28;20545;-83
2023/09/13 00:57:57;;;;;;;11.73;10.50;;;20.00;86.50;;;19.73;74.61;97593.66;5053052;28;20454;-81
2023/09/13 01:00:27;;;;;;;11.40;10.30;;;20.00;86.30;;;20.06;74.01;97626.84;5043256;28;20470;-81
2023/09/13 01:02:55;;;;;;;11.70;10.70;;;20.10;86.30;;;20.21;73.12;97631.38;5042571;28;20463;-84
2023/09/13 01:05:23;;;;;;;10.70;9.70;;;20.20;86.30;;;20.15;73.21;97621.56;5044827;28;20474;-78
2023/09/13 01:07:51;;;;;;;12.33;11.00;;;20.20;85.70;;;20.20;72.86;97635.22;5046901;28;20944;-83
2023/09/13 01:10:19;;;;;;;12.10;10.20;;;20.30;85.60;;;20.26;72.88;97627.75;5049177;28;20518;-82
2023/09/13 01:12:48;;;;;;;10.80;9.70;;;20.40;85.50;;;20.35;71.57;97626.03;5042204;28;20459;-80
2023/09/13 01:15:15;;;;;;;10.80;9.40;;;20.40;85.00;;;20.32;72.02;97629.34;5045369;28;20487;-78
2023/09/13 01:17:53;;;;;;;12.33;10.53;;;20.40;85.00;;;20.25;72.33;97618.72;5040813;28;20476;-78
2023/09/13 01:20:32;;;;;;;12.03;10.70;;;20.40;85.20;;;20.21;72.41;97634.09;5040507;28;20695;-84
2023/09/13 01:23:51;;;;;;;11.83;9.90;;;20.30;85.20;;;20.04;72.98;97635.34;5045325;28;20451;-82
2023/09/13 01:26:51;;;;;;;12.50;11.20;;;20.20;85.30;;;20.01;73.29;97646.06;5046559;28;20977;-79
2023/09/13 01:29:21;;;;;;;12.20;10.30;;;20.10;85.60;;;20.01;73.44;97640.56;5045355;28;20452;-75
2023/09/13 01:31:49;;;;;;;11.50;10.50;;;20.10;85.70;;;20.06;73.27;97640.56;5047266;28;20445;-81
2023/09/13 01:34:18;;;;;;;11.30;10.20;;;20.10;85.80;;;20.01;73.10;97633.19;5052907;28;20477;-82
2023/09/13 01:36:45;;;;;;;11.43;10.40;;;20.10;85.60;;;19.85;73.99;97646.16;5052817;28;20459;-78
2023/09/13 01:39:13;;;;;;;13.70;10.73;;;20.00;85.80;;;19.80;74.38;97651.69;5052913;28;20518;-79
2023/09/13 01:41:45;;;;;;;11.83;10.73;;;19.90;85.80;;;19.82;74.16;97644.81;5051226;28;20460;-79
2023/09/13 01:44:14;;;;;;;11.33;10.30;;;20.00;86.00;;;19.90;73.85;97648.03;5054920;28;20527;-82
2023/09/13 01:46:45;;;;;;;11.23;10.20;;;20.00;86.00;;;19.91;73.80;97638.72;5052835;28;20728;-78
2023/09/13 01:49:14;;;;;;;11.07;10.07;;;20.00;85.90;;;19.62;73.54;97585.50;5053984;28;20467;-79
2023/09/13 01:51:42;;;;;;;11.10;10.20;;;20.10;85.90;;;19.96;73.31;97641.47;5050336;28;20452;-78
2023/09/13 01:54:10;;;;;;;11.67;10.67;;;20.10;85.70;;;19.85;73.84;97639.88;5053886;28;20554;-80
2023/09/13 01:56:37;;;;;;;12.07;10.97;;;20.00;85.70;;;19.89;73.65;97651.88;5058024;28;20511;-78
2023/09/13 01:59:04;;;;;;;11.23;10.13;;;20.00;85.80;;;19.76;74.28;97648.69;5057143;28;20491;-78
2023/09/13 02:01:32;;;;;;;12.70;11.00;;;19.90;86.00;;;19.73;74.34;97646.53;5056652;28;20442;-74
2023/09/13 02:04:01;;;;;;;11.83;10.83;;;19.80;86.00;;;19.66;74.86;97643.28;5058055;28;20444;-81
2023/09/13 02:06:28;;;;;;;10.73;9.73;;;19.80;86.10;;;19.66;74.54;97641.34;5061733;28;20459;-81
2023/09/13 02:08:56;;;;;;;12.60;11.30;;;19.80;86.20;;;19.68;74.50;97644.63;5056989;28;20457;-77
2023/09/13 02:11:24;;;;;;;11.73;10.73;;;19.80;86.00;;;19.57;75.03;97644.97;5052030;28;20479;-82
2023/09/13 02:13:52;;;;;;;12.83;10.60;;;19.70;86.20;;;19.27;74.39;97595.59;5052860;28;20523;-79
2023/09/13 02:16:21;;;;;;;12.33;11.13;;;19.70;86.10;;;19.59;74.56;97646.34;5054016;28;20458;-79
2023/09/13 02:18:48;;;;;;;13.40;10.13;;;19.70;86.10;;;19.66;74.31;97640.56;5051737;28;20453;-81
2023/09/13 02:21:17;;;;;;;11.60;10.50;;;19.70;86.10;;;19.61;74.35;97648.78;5065057;28;20499;-84
2023/09/13 02:23:44;;;;;;;14.30;10.07;;;19.70;86.10;;;19.60;73.96;97642.50;5051622;28;20477;-75
2023/09/13 02:26:20;;;;;;;11.13;10.13;;;19.70;86.10;;;19.60;74.08;97645.25;5050340;28;20984;-80
2023/09/13 02:28:47;;;;;;;11.60;10.50;;;19.60;86.00;;;19.47;74.47;97643.94;5047540;28;20447;-83
2023/09/13 02:31:21;;;;;;;12.13;9.90;;;19.50;86.20;;;19.47;74.51;97643.13;5049145;28;20458;-81
2023/09/13 02:33:49;;;;;;;11.60;10.50;;;19.50;86.40;;;19.45;74.85;97648.88;5050329;28;20450;-83
2023/09/13 02:36:18;;;;;;;12.23;11.10;;;19.40;86.40;;;19.46;74.92;97639.56;5051402;28;20462;-80
2023/09/13 02:38:46;;;;;;;10.80;9.70;;;19.40;86.50;;;19.19;75.07;97612.59;5049366;28;20464;-85
2023/09/13 02:41:13;;;;;;;11.00;10.00;;;19.50;86.50;;;19.17;75.00;97598.38;5049245;28;20461;-79
2023/09/13 02:43:40;;;;;;;19.33;10.57;;;19.50;86.30;;;19.50;74.27;97632.44;5041047;28;20476;-81
2023/09/13 02:46:08;;;;;;;12.23;10.30;;;19.60;86.50;;;19.63;73.21;97630.13;5047578;28;20478;-83
2023/09/13 02:48:37;;;;;;;11.27;10.30;;;19.70;85.70;;;19.65;73.49;97633.44;5039973;28;20450;-80
2023/09/13 02:51:04;;;;;;;11.77;9.30;;;19.80;86.10;;;19.32;73.23;97559.13;5046368;28;20894;-82
2023/09/13 02:53:33;;;;;;;10.80;9.90;;;19.80;85.70;;;19.80;73.03;97627.00;5047780;28;20456;-82
2023/09/13 02:56:07;;;;;;;11.40;10.40;;;19.80;85.70;;;19.80;73.08;97629.75;5047988;28;20479;-82
2023/09/13 02:58:34;;;;;;;11.33;10.23;;;19.80;85.80;;;19.77;73.51;97630.34;5051477;28;20529;-84
2023/09/13 03:01:03;;;;;;;11.00;10.03;;;19.70;85.80;;;19.77;73.33;97633.88;5049097;28;20460;-83
2023/09/13 03:03:32;;;;;;;9.60;8.80;;;19.70;85.90;;;19.78;73.14;97626.47;5041262;28;20500;-82
2023/09/13 03:06:13;;;;;;;12.03;10.23;;;19.70;86.00;;;19.86;73.08;97630.53;5046264;28;21119;-82
2023/09/13 03:08:43;;;;;;;10.90;9.80;;;19.80;85.90;;;19.92;72.85;97615.72;5050453;28;20507;-80
2023/09/13 03:11:15;;;;;;;9.67;8.87;;;19.90;85.70;;;20.02;72.81;97610.16;5048629;28;20522;-81
2023/09/13 03:13:44;;;;;;;10.97;10.00;;;19.90;85.80;;;19.94;72.54;97602.53;5053268;28;20488;-83
2023/09/13 03:16:15;;;;;;;11.00;9.53;;;20.00;85.70;;;19.90;72.66;97628.84;5052624;28;20488;-83
2023/09/13 03:18:43;;;;;;;10.20;9.03;;;19.90;85.60;;;19.81;74.53;97648.66;5049866;28;20460;-84
2023/09/13 03:21:12;;;;;;;10.63;9.57;;;19.90;86.30;;;19.99;73.38;97662.81;5054956;28;20473;-81
2023/09/13 03:23:41;;;;;;;11.60;10.47;;;20.00;85.90;;;19.93;72.36;97655.72;5053141;28;20536;-76
2023/09/13 03:26:15;;;;;;;10.37;9.50;;;20.00;85.50;;;20.04;71.62;97654.53;5071556;28;20460;-74
2023/09/13 03:28:46;;;;;;;9.87;9.03;;;20.00;85.10;;;20.18;70.62;97646.50;5057612;28;20448;-81
2023/09/13 03:31:16;;;;;;;9.20;8.30;;;20.10;85.10;;;20.19;70.70;97656.34;5056855;28;20532;-80
2023/09/13 03:33:44;;;;;;;9.23;8.43;;;20.10;85.00;;;19.92;70.04;97596.53;5051121;28;20457;-85
2023/09/13 03:36:14;;;;;;;10.20;9.30;;;20.20;84.60;;;20.35;70.07;97659.75;5052802;28;21207;-85
2023/09/13 03:38:43;;;;;;;10.97;9.83;;;20.30;84.60;;;20.28;70.25;97659.28;5045414;28;20463;-89
2023/09/13 03:41:16;;;;;;;9.97;8.70;;;20.20;84.40;;;20.14;70.39;97661.06;5049789;28;20470;-84
2023/09/13 03:43:43;;;;;;;10.23;9.23;;;20.20;84.60;;;20.19;70.40;97663.75;5049262;28;20459;-82
2023/09/13 03:46:10;;;;;;;12.50;9.07;;;20.20;84.60;;;20.17;70.70;97652.25;5050298;28;20479;-79
2023/09/13 03:48:40;;;;;;;9.73;8.93;;;20.20;84.60;;;20.23;70.23;97659.31;5048749;28;21101;-80
2023/09/13 03:51:07;;;;;;;9.17;8.30;;;20.20;84.50;;;20.23;70.12;97667.53;5048766;28;20473;-75
2023/09/13 03:53:35;;;;;;;10.33;9.37;;;20.20;84.30;;;20.22;70.22;97669.50;5051313;28;20464;-81
2023/09/13 03:56:05;;;;;;;12.60;10.40;;;20.30;84.30;;;20.14;70.50;97672.03;5049025;28;20487;-82
2023/09/13 03:58:35;;;;;;;10.10;9.20;;;20.20;84.30;;;20.10;70.38;97661.63;5050410;28;20463;-80
2023/09/13 04:01:04;;;;;;;9.70;8.70;;;20.20;84.40;;;20.08;70.98;97663.81;5049565;28;20453;-75
2023/09/13 04:03:33;;;;;;;10.47;9.37;;;20.20;84.50;;;20.05;70.83;97675.38;5049826;28;20456;-81
2023/09/13 04:06:00;;;;;;;10.60;9.70;;;20.20;84.50;;;20.10;70.92;97666.28;5039558;28;20496;-80
2023/09/13 04:08:28;;;;;;;11.10;9.93;;;20.10;84.70;;;20.05;70.60;97663.59;5047559;28;20468;-79
2023/09/13 04:10:56;;;;;;;11.30;9.07;;;20.10;84.50;;;20.02;71.37;97678.69;5047733;28;20456;-82
2023/09/13 04:13:24;;;;;;;9.90;8.87;;;20.00;84.80;;;20.08;71.02;97680.28;5048370;28;21001;-81
2023/09/13 04:15:52;;;;;;;10.20;9.07;;;20.10;84.60;;;19.98;71.09;97654.88;5048188;28;20488;-82
2023/09/13 04:18:20;;;;;;;10.93;8.70;;;20.20;84.60;;;19.95;71.61;97664.50;5045865;28;20453;-81
2023/09/13 04:20:47;;;;;;;9.73;8.83;;;20.10;84.70;;;19.82;72.00;97666.75;5049091;28;20470;-80
2023/09/13 04:23:15;;;;;;;9.90;8.47;;;20.00;85.20;;;19.88;72.36;97669.44;5045969;28;20516;-77
2023/09/13 04:25:43;;;;;;;11.80;8.83;;;20.00;85.20;;;19.94;71.94;97665.56;5049493;28;20462;-79
2023/09/13 04:28:10;;;;;;;10.47;9.57;;;20.00;85.00;;;19.90;72.25;97672.72;5055033;28;20455;-84
2023/09/13 04:30:38;;;;;;;10.60;9.47;;;19.90;85.20;;;19.80;72.38;97673.59;5042610;28;20465;-82
2023/09/13 04:33:08;;;;;;;9.37;8.47;;;19.90;85.00;;;19.78;72.21;97673.88;5049647;28;20660;-81
2023/09/13 04:35:36;;;;;;;10.67;9.57;;;19.90;85.00;;;19.94;71.92;97701.22;5035072;28;20485;-78
2023/09/13 04:38:03;;;;;;;10.10;9.03;;;20.00;84.80;;;19.87;72.36;97689.72;5057543;28;20476;-73
2023/09/13 04:40:31;;;;;;;9.63;8.83;;;20.00;85.10;;;19.85;72.63;97683.72;5070836;28;20444;-72
2023/09/13 04:43:19;;;;;;;9.10;8.23;;;19.90;85.10;;;19.71;73.02;97687.09;5071086;28;20474;-71
2023/09/13 04:45:46;;;;;;;10.63;9.63;;;19.90;85.40;;;19.67;73.44;97686.03;5064442;28;20509;-71
2023/09/13 04:48:15;;;;;;;9.93;9.03;;;19.90;85.50;;;19.66;73.74;97711.78;5071248;28;20443;-73
2023/09/13 04:50:42;;;;;;;10.40;9.30;;;19.90;85.60;;;19.63;74.02;97706.84;5071120;28;20445;-70
2023/09/13 04:53:10;;;;;;;11.60;9.47;;;19.80;85.80;;;19.60;74.41;97701.94;5068334;28;20487;-83
2023/09/13 04:55:37;;;;;;;10.03;9.03;;;19.80;85.80;;;19.75;73.80;97704.59;5068198;28;20471;-76
2023/09/13 04:58:05;;;;;;;10.63;9.40;;;19.90;86.00;;;19.39;74.13;97642.59;5066350;28;20453;-79
2023/09/13 05:00:33;;;;;;;11.37;9.07;;;19.90;86.20;;;19.66;74.85;97706.31;5056570;28;20519;-79
2023/09/13 05:03:00;;;;;;;10.10;7.87;;;19.90;86.10;;;19.66;75.22;97706.31;5042964;28;20449;-77
2023/09/13 05:05:28;;;;;;;9.10;8.27;;;19.80;86.30;;;19.74;75.01;97696.69;5039914;28;20530;-77
2023/09/13 05:07:56;;;;;;;9.40;8.60;;;19.90;86.40;;;19.74;74.86;97700.22;5046388;28;20459;-81
2023/09/13 05:10:23;;;;;;;9.93;8.93;;;19.90;86.40;;;19.61;74.70;97670.69;5042237;28;20459;-85
2023/09/13 05:12:51;;;;;;;9.17;8.37;;;19.90;86.70;;;19.74;75.12;97711.19;5053220;28;20456;-80
2023/09/13 05:15:18;;;;;;;10.50;9.50;;;19.90;86.50;;;19.68;75.77;97715.06;5041219;28;20563;-76
2023/09/13 05:17:47;;;;;;;11.00;8.23;;;19.80;86.60;;;19.70;75.80;97712.03;5052999;28;20448;-80
2023/09/13 05:20:14;;;;;;;10.70;9.13;;;19.80;86.90;;;19.71;75.56;97714.50;5052717;28;20477;-84
2023/09/13 05:22:43;;;;;;;9.47;8.57;;;19.80;86.80;;;19.74;76.03;97713.94;5050096;28;20930;-84
2023/09/13 05:25:11;;;;;;;10.93;9.10;;;19.80;87.00;;;19.63;76.60;97723.28;5045666;28;20488;-81
2023/09/13 05:27:38;;;;;;;9.40;8.50;;;19.80;87.30;;;19.56;76.90;97720.88;5051024;28;20461;-81
2023/09/13 05:30:08;;;;;;;9.47;8.57;;;19.80;87.30;;;19.65;76.74;97726.59;5047380;28;20501;-78
2023/09/13 05:32:36;;;;;;;8.63;7.83;;;19.80;87.50;;;19.62;77.31;97738.09;5047047;28;20473;-84
2023/09/13 05:35:04;;;;;;;9.03;8.10;;;19.70;87.70;;;19.65;77.73;97729.34;5049482;28;20919;-82
2023/09/13 05:37:32;;;;;;;10.63;9.53;;;19.70;87.90;;;19.58;77.85;97737.03;5044033;28;20570;-73
2023/09/13 05:40:06;;;;;;;9.87;7.57;;;19.70;87.90;;;19.57;78.03;97738.13;5041507;28;20489;-79
2023/09/13 05:42:34;;;;;;;9.40;8.60;;;19.70;87.90;;;19.56;78.10;97744.72;5042512;28;20475;-75
2023/09/13 05:45:03;;;;;;;9.30;8.40;;;19.70;88.00;;;19.63;78.32;97750.69;5047733;28;20883;-82
2023/09/13 05:47:30;;;;;;;16.77;11.63;;;19.70;88.10;;;19.60;78.21;97752.09;5044004;28;20459;-79
2023/09/13 05:49:57;;;;;;;12.43;8.03;;;19.80;88.30;;;19.63;78.18;97751.53;5046774;28;20449;-75
2023/09/13 05:52:24;;;;;;;9.87;7.77;;;19.80;88.10;;;19.88;77.06;97762.63;5051959;28;20462;-75
2023/09/13 05:54:51;;;;;;;10.07;8.23;;;19.90;88.00;;;19.67;77.00;97729.88;5043450;28;20464;-74
2023/09/13 05:57:21;;;;;;;12.40;8.07;;;19.90;87.90;;;19.88;77.01;97768.13;5048409;28;20435;-76
2023/09/13 05:59:48;;;;;;;8.17;7.47;;;20.00;87.80;;;19.99;76.64;97764.25;5049995;28;20490;-76
2023/09/13 06:02:15;;;;;;;9.17;8.27;;;20.10;87.80;;;19.98;76.81;97761.78;5044053;28;20448;-76
2023/09/13 06:04:43;;;;;;;9.47;8.53;;;20.20;87.80;;;19.88;76.93;97757.16;5046831;28;20534;-76
2023/09/13 06:07:10;;;;;;;10.70;9.17;;;20.10;87.60;;;20.05;75.90;97760.38;5039362;28;20879;-80
2023/09/13 06:09:37;;;;;;;9.10;7.90;;;20.20;87.50;;;20.21;75.49;97766.59;5045645;28;20533;-77
2023/09/13 06:12:05;;;;;;;9.10;8.10;;;20.30;87.40;;;20.32;75.07;97761.84;5042413;28;20467;-79
2023/09/13 06:14:34;;;;;;;8.60;7.80;;;20.40;87.30;;;20.35;74.78;97764.00;5041525;28;20780;-78
2023/09/13 06:17:02;;;;;;;10.50;7.73;;;20.50;87.10;;;20.48;74.13;97769.94;5040822;28;20476;-75
2023/09/13 06:19:29;;;;;;;7.97;7.00;;;20.60;87.00;;;20.51;73.94;97775.69;5045500;28;20458;-74
2023/09/13 06:21:57;;;;;;;8.47;7.00;;;20.60;86.80;;;20.35;74.70;97766.75;5042247;28;21008;-78
2023/09/13 06:24:25;;;;;;;7.50;6.50;;;20.60;86.70;;;20.35;74.22;97771.44;5050979;28;20457;-76
2023/09/13 06:26:52;;;;;;;7.53;6.80;;;20.60;86.60;;;20.10;75.12;97782.28;5047800;28;20494;-78
2023/09/13 06:29:20;;;;;;;7.73;7.00;;;20.50;86.70;;;20.22;75.10;97781.09;5045644;28;20552;-80
2023/09/13 06:31:50;;;;;;;7.40;6.80;;;20.40;86.80;;;20.37;74.21;97783.72;5036398;28;20448;-78
2023/09/13 06:34:17;;;;;;;7.83;6.80;;;20.50;86.70;;;20.39;74.35;97784.25;5038097;28;20462;-77
2023/09/13 06:36:46;;;;;;;7.73;6.90;;;20.60;86.80;;;20.23;74.61;97780.81;5035668;28;20473;-70
2023/09/13 06:39:13;;;;;;;7.57;6.60;;;20.50;86.60;;;20.32;74.66;97783.78;5029250;28;21111;-75
2023/09/13 06:41:40;;;;;;;11.00;6.50;;;20.50;86.80;;;20.30;74.97;97782.41;5043084;28;20465;-77
2023/09/13 06:44:09;;;;;;;7.33;6.23;;;20.50;86.80;;;20.37;74.45;97786.47;5043038;28;20460;-75
2023/09/13 06:46:37;;;;;;;8.93;7.87;;;20.60;86.80;;;20.37;74.15;97797.44;5051935;28;20539;-71
2023/09/13 06:49:06;;;;;;;7.80;6.70;;;20.60;86.50;;;20.21;75.04;97798.66;5046144;28;20529;-78
2023/09/13 06:51:33;;;;;;;8.83;7.47;;;20.60;86.70;;;20.37;74.62;97802.13;5031442;28;20458;-73
2023/09/13 06:54:03;;;;;;;6.27;5.77;;;20.60;86.70;;;20.39;74.66;97799.91;5039512;28;20465;-77
2023/09/13 06:56:30;;;;;;;7.80;7.00;;;20.60;86.70;;;20.49;73.93;97805.34;5032707;28;20477;-76
2023/09/13 06:58:57;;;;;;;8.43;6.93;;;20.70;86.70;;;20.17;73.45;97749.06;5040211;28;20453;-75
2023/09/13 07:01:25;;;;;;;6.83;5.97;;;20.70;86.30;;;20.76;72.82;97808.69;5046022;28;20451;-84
2023/09/13 07:03:53;;;;;;;7.03;6.33;;;20.80;86.30;;;20.49;72.45;97772.41;5048329;28;20451;-81
2023/09/13 07:06:22;;;;;;;6.47;5.77;;;20.90;86.20;;;20.77;71.98;97810.34;5046942;28;20822;-83
2023/09/13 07:08:49;;;;;;;7.80;7.10;;;21.00;85.90;;;20.63;71.16;97767.06;5048700;28;20507;-85
2023/09/13 07:11:17;;;;;;;6.83;6.00;;;21.10;85.70;;;21.19;70.34;97822.63;5048248;28;20535;-79
2023/09/13 07:13:45;;;;;;;7.00;5.97;;;21.30;85.20;;;21.37;69.29;97834.75;5052941;28;20484;-78
2023/09/13 07:16:12;;;;;;;7.23;6.53;;;21.50;84.80;;;21.04;70.03;97836.50;5053044;28;21075;-82
2023/09/13 07:18:40;;;;;;;6.27;5.67;;;21.40;84.70;;;21.22;69.66;97833.00;5052573;28;20950;-83
2023/09/13 07:21:07;;;;;;;6.20;5.47;;;21.40;84.80;;;21.33;69.08;97832.91;5044118;28;20462;-77
2023/09/13 07:23:37;;;;;;;6.30;5.53;;;21.50;84.60;;;21.37;68.60;97837.50;5042247;28;20555;-83
2023/09/13 07:26:04;;;;;;;6.50;5.90;;;21.60;84.30;;;21.40;68.70;97838.06;5041251;28;20443;-81
2023/09/13 07:28:31;;;;;;;6.67;6.07;;;21.60;84.20;;;21.61;67.33;97836.72;5045885;28;20451;-78
2023/09/13 07:30:59;;;;;;;7.03;6.43;;;21.70;83.80;;;21.64;67.42;97832.56;5047121;28;20891;-76
2023/09/13 07:33:27;;;;;;;6.80;5.97;;;21.70;83.70;;;21.72;66.85;97850.38;5041983;28;20967;-84
2023/09/13 07:35:54;;;;;;;6.50;5.90;;;21.80;83.50;;;21.44;67.89;97836.38;5047806;28;20562;-78
2023/09/13 07:38:22;;;;;;;6.73;6.23;;;21.60;83.60;;;21.52;67.71;97844.78;5040231;28;20470;-82
2023/09/13 07:40:50;;;;;;;7.10;6.10;;;21.70;83.70;;;21.52;68.06;97849.44;5054031;28;20570;-84
2023/09/13 07:43:18;;;;;;;6.87;6.27;;;21.60;83.80;;;21.48;67.71;97848.41;5044249;28;20518;-82
2023/09/13 07:45:47;;;;;;;9.97;7.47;;;21.80;83.60;;;22.10;65.75;97839.44;5047495;28;20462;-79
2023/09/13 07:48:14;;;;;;;6.10;5.50;;;22.10;83.40;;;21.94;65.41;97852.59;5048526;28;20936;-83
2023/09/13 07:50:42;;;;;;;7.37;5.10;;;22.10;82.60;;;22.04;65.59;97852.44;5042053;28;20456;-83
2023/09/13 07:53:10;;;;;;;6.30;5.70;;;22.20;82.90;;;21.72;66.70;97861.38;5040611;28;20503;-78
2023/09/13 07:55:39;;;;;;;5.20;4.70;;;22.10;82.90;;;21.71;66.02;97848.75;5044080;28;20476;-79
2023/09/13 07:58:08;;;;;;;4.93;4.53;;;22.00;82.60;;;22.08;64.75;97858.19;5045307;28;20504;-77
2023/09/13 08:00:36;;;;;;;5.40;4.90;;;22.10;82.20;;;22.13;64.90;97860.06;5051917;28;20461;-76
2023/09/13 08:03:04;;;;;;;6.37;5.87;;;22.20;82.20;;;21.82;65.62;97854.94;5039054;28;20446;-85
2023/09/13 08:05:33;;;;;;;5.97;5.47;;;22.10;82.30;;;21.78;66.02;97855.53;5050303;28;20467;-74
2023/09/13 08:08:00;;;;;;;5.47;5.00;;;22.00;82.40;;;21.61;66.75;97852.38;5047988;28;20445;-79
2023/09/13 08:10:28;;;;;;;5.60;5.10;;;21.80;82.70;;;21.63;66.75;97852.94;5048882;28;20448;-74
2023/09/13 08:12:55;;;;;;;6.17;5.67;;;21.70;82.80;;;21.52;65.66;97803.56;5041718;28;20495;-83
2023/09/13 08:15:24;;;;;;;5.20;4.70;;;21.90;82.60;;;22.24;64.30;97856.06;5046471;28;20453;-85
2023/09/13 08:17:52;;;;;;;5.53;5.03;;;22.20;82.10;;;22.54;63.51;97867.78;5044576;28;21013;-84
2023/09/13 08:20:19;;;;;;;4.57;4.27;;;22.50;81.70;;;22.71;61.87;97880.19;5047687;28;20456;-81
2023/09/13 08:22:46;;;;;;;4.47;4.10;;;22.70;80.90;;;22.61;62.28;97870.16;5045858;28;21011;-83
2023/09/13 08:25:13;;;;;;;5.47;4.27;;;22.70;80.60;;;22.77;61.40;97871.53;5044735;28;20463;-84
2023/09/13 08:27:41;;;;;;;4.97;4.43;;;22.80;80.20;;;22.92;60.30;97869.66;5048788;28;20460;-80
2023/09/13 08:30:09;;;;;;;3.70;3.40;;;23.10;79.60;;;22.34;61.34;97877.91;5045066;28;20480;-75
2023/09/13 08:32:38;;;;;;;6.70;4.30;;;22.70;79.40;;;22.12;62.51;97880.41;5045800;28;20790;-86
2023/09/13 08:35:07;;;;;;;4.13;3.80;;;22.30;79.70;;;21.85;63.24;97876.34;5046053;28;20554;-83
2023/09/13 08:37:34;;;;;;;5.27;3.87;;;22.10;80.00;;;21.69;63.61;97884.75;5041817;28;20467;-84
2023/09/13 08:40:01;;;;;;;4.33;3.83;;;22.00;80.10;;;21.66;63.57;97882.59;5049193;28;20514;-82
2023/09/13 08:42:29;;;;;;;5.57;4.07;;;21.90;80.30;;;21.87;63.68;97885.94;5049254;28;20445;-84
2023/09/13 08:44:59;;;;;;;4.67;4.27;;;21.90;80.70;;;21.97;63.05;97879.50;5041325;28;21015;-84
2023/09/13 08:47:29;;;;;;;4.43;3.27;;;22.10;80.50;;;22.01;62.46;97891.53;5047647;28;20455;-73
2023/09/13 08:49:59;;;;;;;4.30;3.90;;;22.20;79.90;;;21.75;62.10;97841.53;5045706;28;20959;-81
2023/09/13 08:52:29;;;;;;;3.70;3.40;;;22.30;79.50;;;21.91;61.52;97853.16;5059565;28;20477;-85
2023/09/13 08:54:57;;;;;;;4.30;3.80;;;22.40;79.50;;;22.50;61.38;97899.75;5048460;28;20449;-78
2023/09/13 08:57:25;;;;;;;5.27;3.37;;;22.50;79.50;;;22.57;60.86;97916.72;5037707;28;20473;-75
2023/09/13 08:59:55;;;;;;;3.37;3.13;;;22.70;79.20;;;22.29;61.86;97919.25;5043463;28;20960;-82
2023/09/13 09:02:24;;;;;;;3.20;2.90;;;22.40;79.40;;;22.40;61.34;97908.94;5035906;28;21268;-85
2023/09/13 09:04:53;;;;;;;3.73;3.43;;;22.50;79.30;;;22.86;60.01;97910.25;5038389;28;20552;-82
2023/09/13 09:07:22;;;;;;;3.50;3.23;;;22.80;78.80;;;23.04;59.33;97916.81;5046299;28;20480;-85
2023/09/13 09:09:50;;;;;;;3.40;3.10;;;23.10;78.50;;;22.90;59.78;97915.97;5040852;28;20458;-83
2023/09/13 09:12:18;;;;;;;3.77;3.47;;;23.10;78.30;;;22.20;60.95;97885.25;5044096;28;20466;-81
2023/09/13 09:14:50;;;;;;;4.17;3.77;;;22.80;78.40;;;22.04;62.16;97918.44;5043276;28;20448;-85
2023/09/13 09:17:22;;;;;;;4.60;3.87;;;22.40;79.00;;;21.58;63.49;97885.94;5040469;28;20988;-83
2023/09/13 09:19:49;;;;;;;3.80;3.53;;;22.20;79.60;;;21.93;63.41;97927.97;5039929;28;20471;-83
2023/09/13 09:22:20;;;;;;;4.50;3.97;;;22.10;79.80;;;21.89;63.26;97927.72;5047156;28;20461;-83
2023/09/13 09:24:47;;;;;;;4.27;3.20;;;22.10;79.70;;;22.09;63.16;97936.84;5043394;28;20459;-81
2023/09/13 09:27:14;;;;;;;3.70;3.40;;;22.30;79.80;;;22.63;61.62;97940.28;5041343;28;20471;-86
2023/09/13 09:29:44;;;;;;;4.63;3.93;;;22.60;79.60;;;23.18;59.02;97933.41;5056615;28;20474;-81
2023/09/13 09:32:14;;;;;;;3.97;3.67;;;23.20;78.50;;;23.18;58.96;97930.66;5040033;28;20771;-84
2023/09/13 09:34:42;;;;;;;4.90;3.90;;;23.40;78.00;;;23.16;58.19;97932.06;5038473;28;20464;-83
2023/09/13 09:37:11;;;;;;;5.30;3.60;;;23.40;77.30;;;23.31;58.39;97917.25;5036399;28;20599;-83
2023/09/13 09:39:42;;;;;;;3.60;3.30;;;23.40;77.50;;;23.33;58.26;97935.13;5038635;28;20476;-82
2023/09/13 09:42:15;;;;;;;5.30;3.53;;;23.50;77.30;;;23.24;58.58;97936.06;5031958;28;20460;-82
2023/09/13 09:44:42;;;;;;;3.60;3.30;;;23.50;77.30;;;22.88;59.41;97940.22;5040067;28;20466;-81
2023/09/13 09:47:12;;;;;;;4.20;3.70;;;23.30;77.30;;;23.16;58.79;97943.94;5038502;28;20448;-81
2023/09/13 09:49:39;;;;;;;6.33;3.90;;;23.30;77.50;;;22.78;58.35;97922.75;5042307;28;20513;-84
2023/09/13 09:52:08;;;;;;;3.63;3.33;;;23.20;76.70;;;22.61;58.80;97942.53;5047023;28;20453;-83
2023/09/13 09:54:39;;;;;;;3.73;3.47;;;22.90;76.50;;;22.41;59.16;97943.59;5053849;28;20457;-85
2023/09/13 09:57:07;;;;;;;3.87;3.53;;;22.60;76.50;;;22.18;59.81;97934.25;5053652;28;20554;-81
2023/09/13 09:59:35;;;;;;;3.87;3.60;;;22.40;76.70;;;22.43;59.42;97940.56;5052544;28;20591;-81
2023/09/13 10:02:03;;;;;;;4.40;3.77;;;22.50;76.90;;;22.55;59.00;97945.66;5046024;28;20465;-82
2023/09/13 10:04:45;;;;;;;4.53;4.13;;;22.70;76.80;;;22.69;58.96;97943.00;5049805;28;20463;-81
2023/09/13 10:07:12;;;;;;;4.50;3.43;;;22.70;76.80;;;23.14;57.57;97945.34;5040280;28;20490;-81
2023/09/13 10:09:45;;;;;;;4.33;3.93;;;23.10;76.40;;;23.14;57.33;97940.66;5056915;28;20469;-84
2023/09/13 10:12:14;;;;;;;5.87;3.93;;;23.20;76.20;;;23.04;57.61;97946.31;5049819;28;20453;-84
2023/09/13 10:14:43;;;;;;;4.30;3.87;;;23.30;76.00;;;23.20;57.46;97947.72;5054617;28;20445;-84
2023/09/13 10:17:12;;;;;;;4.10;3.70;;;23.30;76.10;;;23.00;57.89;97957.09;5067493;28;20979;-82
2023/09/13 10:19:43;;;;;;;4.60;4.17;;;23.30;76.00;;;22.94;58.40;97950.06;5052397;28;20561;-82
2023/09/13 10:22:15;;;;;;;4.30;3.70;;;23.10;76.30;;;22.97;58.82;97954.13;5048659;28;20469;-81